sensor_id;sensor_type;location;lat;lon;timestamp;P1;durP1;ratioP1;P2;durP2;ratioP2
21337;SDS011;72379;50.880;4.350;2024-01-25T00:00:02;47.57;;;6.33;;
21337;SDS011;72379;50.880;4.350;2024-01-25T00:02:28;61.67;;;8.37;;
21337;SDS011;72379;50.880;4.350;2024-01-25T00:04:54;44.93;;;7.43;;
21337;SDS011;72379;50.880;4.350;2024-01-25T00:07:20;50.33;;;7.67;;
21337;SDS011;72379;50.880;4.350;2024-01-25T00:09:46;51.37;;;6.33;;
21337;SDS011;72379;50.880;4.350;2024-01-25T00:12:11;57.43;;;7.30;;
21337;SDS011;72379;50.880;4.350;2024-01-25T00:14:37;52.77;;;6.93;;
21337;SDS011;72379;50.880;4.350;2024-01-25T00:17:03;49.97;;;6.47;;
21337;SDS011;72379;50.880;4.350;2024-01-25T00:19:29;49.57;;;7.53;;
21337;SDS011;72379;50.880;4.350;2024-01-25T00:21:56;50.07;;;6.40;;
21337;SDS011;72379;50.880;4.350;2024-01-25T00:24:22;48.63;;;7.10;;
21337;SDS011;72379;50.880;4.350;2024-01-25T00:26:48;53.70;;;8.13;;
21337;SDS011;72379;50.880;4.350;2024-01-25T00:29:14;55.30;;;7.97;;
21337;SDS011;72379;50.880;4.350;2024-01-25T00:31:40;58.30;;;9.97;;
21337;SDS011;72379;50.880;4.350;2024-01-25T00:34:06;63.23;;;8.50;;
21337;SDS011;72379;50.880;4.350;2024-01-25T00:36:32;54.70;;;7.93;;
21337;SDS011;72379;50.880;4.350;2024-01-25T00:38:58;57.63;;;8.10;;
21337;SDS011;72379;50.880;4.350;2024-01-25T00:41:24;58.60;;;9.00;;
21337;SDS011;72379;50.880;4.350;2024-01-25T00:43:50;64.03;;;8.17;;
21337;SDS011;72379;50.880;4.350;2024-01-25T00:46:16;56.50;;;7.17;;
21337;SDS011;72379;50.880;4.350;2024-01-25T00:48:42;50.30;;;7.10;;
21337;SDS011;72379;50.880;4.350;2024-01-25T00:51:08;57.53;;;7.70;;
21337;SDS011;72379;50.880;4.350;2024-01-25T00:53:41;56.57;;;6.90;;
21337;SDS011;72379;50.880;4.350;2024-01-25T00:56:07;55.13;;;6.93;;
21337;SDS011;72379;50.880;4.350;2024-01-25T00:58:34;48.20;;;7.30;;
21337;SDS011;72379;50.880;4.350;2024-01-25T01:01:00;58.40;;;8.17;;
21337;SDS011;72379;50.880;4.350;2024-01-25T01:03:26;61.33;;;6.73;;
21337;SDS011;72379;50.880;4.350;2024-01-25T01:05:52;46.70;;;7.23;;
21337;SDS011;72379;50.880;4.350;2024-01-25T01:08:18;48.63;;;6.47;;
21337;SDS011;72379;50.880;4.350;2024-01-25T01:10:44;56.30;;;6.90;;
21337;SDS011;72379;50.880;4.350;2024-01-25T01:13:10;41.47;;;7.30;;
21337;SDS011;72379;50.880;4.350;2024-01-25T01:15:35;54.67;;;9.10;;
21337;SDS011;72379;50.880;4.350;2024-01-25T01:18:02;53.33;;;10.87;;
21337;SDS011;72379;50.880;4.350;2024-01-25T01:20:30;59.00;;;10.20;;
21337;SDS011;72379;50.880;4.350;2024-01-25T01:22:56;65.97;;;9.77;;
21337;SDS011;72379;50.880;4.350;2024-01-25T01:25:21;53.63;;;8.90;;
21337;SDS011;72379;50.880;4.350;2024-01-25T01:27:47;53.13;;;8.40;;
21337;SDS011;72379;50.880;4.350;2024-01-25T01:30:13;52.90;;;7.13;;
21337;SDS011;72379;50.880;4.350;2024-01-25T01:32:39;61.47;;;8.00;;
21337;SDS011;72379;50.880;4.350;2024-01-25T01:35:05;51.13;;;6.47;;
21337;SDS011;72379;50.880;4.350;2024-01-25T01:37:31;51.80;;;6.90;;
21337;SDS011;72379;50.880;4.350;2024-01-25T01:39:57;44.40;;;6.37;;
21337;SDS011;72379;50.880;4.350;2024-01-25T01:42:24;49.87;;;6.93;;
21337;SDS011;72379;50.880;4.350;2024-01-25T01:44:50;48.70;;;6.27;;
21337;SDS011;72379;50.880;4.350;2024-01-25T01:47:17;37.17;;;7.17;;
21337;SDS011;72379;50.880;4.350;2024-01-25T01:49:43;43.27;;;6.63;;
21337;SDS011;72379;50.880;4.350;2024-01-25T01:52:09;52.07;;;6.27;;
21337;SDS011;72379;50.880;4.350;2024-01-25T01:54:36;54.77;;;7.30;;
21337;SDS011;72379;50.880;4.350;2024-01-25T01:57:03;60.60;;;7.93;;
21337;SDS011;72379;50.880;4.350;2024-01-25T01:59:29;50.47;;;7.17;;
21337;SDS011;72379;50.880;4.350;2024-01-25T02:01:55;44.97;;;5.43;;
21337;SDS011;72379;50.880;4.350;2024-01-25T02:04:21;50.37;;;7.00;;
21337;SDS011;72379;50.880;4.350;2024-01-25T02:06:47;62.93;;;6.63;;
21337;SDS011;72379;50.880;4.350;2024-01-25T02:09:13;51.93;;;6.93;;
21337;SDS011;72379;50.880;4.350;2024-01-25T02:11:39;55.23;;;6.97;;
21337;SDS011;72379;50.880;4.350;2024-01-25T02:14:05;41.20;;;7.13;;
21337;SDS011;72379;50.880;4.350;2024-01-25T02:16:35;46.27;;;6.10;;
21337;SDS011;72379;50.880;4.350;2024-01-25T02:19:01;39.57;;;5.97;;
21337;SDS011;72379;50.880;4.350;2024-01-25T02:21:27;48.00;;;6.53;;
21337;SDS011;72379;50.880;4.350;2024-01-25T02:23:53;57.53;;;7.27;;
21337;SDS011;72379;50.880;4.350;2024-01-25T02:26:19;54.30;;;7.03;;
21337;SDS011;72379;50.880;4.350;2024-01-25T02:28:45;47.67;;;6.47;;
21337;SDS011;72379;50.880;4.350;2024-01-25T02:31:11;49.33;;;7.40;;
21337;SDS011;72379;50.880;4.350;2024-01-25T02:33:37;47.20;;;6.30;;
21337;SDS011;72379;50.880;4.350;2024-01-25T02:36:03;48.70;;;6.77;;
21337;SDS011;72379;50.880;4.350;2024-01-25T02:38:29;48.97;;;5.90;;
21337;SDS011;72379;50.880;4.350;2024-01-25T02:40:55;41.87;;;6.13;;
21337;SDS011;72379;50.880;4.350;2024-01-25T02:43:21;54.80;;;7.03;;
21337;SDS011;72379;50.880;4.350;2024-01-25T02:45:47;40.00;;;6.27;;
21337;SDS011;72379;50.880;4.350;2024-01-25T02:48:13;52.30;;;6.10;;
21337;SDS011;72379;50.880;4.350;2024-01-25T02:50:40;53.40;;;6.30;;
21337;SDS011;72379;50.880;4.350;2024-01-25T02:53:06;44.60;;;6.57;;
21337;SDS011;72379;50.880;4.350;2024-01-25T02:55:34;36.80;;;5.87;;
21337;SDS011;72379;50.880;4.350;2024-01-25T02:58:00;58.80;;;6.20;;
21337;SDS011;72379;50.880;4.350;2024-01-25T03:00:25;41.67;;;5.70;;
21337;SDS011;72379;50.880;4.350;2024-01-25T03:02:51;33.37;;;5.30;;
21337;SDS011;72379;50.880;4.350;2024-01-25T03:05:17;57.80;;;6.17;;
21337;SDS011;72379;50.880;4.350;2024-01-25T03:07:43;46.77;;;5.67;;
21337;SDS011;72379;50.880;4.350;2024-01-25T03:10:09;50.43;;;6.60;;
21337;SDS011;72379;50.880;4.350;2024-01-25T03:12:35;34.13;;;5.20;;
21337;SDS011;72379;50.880;4.350;2024-01-25T03:15:00;46.43;;;6.70;;
21337;SDS011;72379;50.880;4.350;2024-01-25T03:17:26;46.33;;;6.13;;
21337;SDS011;72379;50.880;4.350;2024-01-25T03:19:52;48.70;;;5.67;;
21337;SDS011;72379;50.880;4.350;2024-01-25T03:22:18;50.60;;;6.57;;
21337;SDS011;72379;50.880;4.350;2024-01-25T03:24:44;44.27;;;6.57;;
21337;SDS011;72379;50.880;4.350;2024-01-25T03:27:11;51.83;;;7.03;;
21337;SDS011;72379;50.880;4.350;2024-01-25T03:29:42;45.10;;;5.97;;
21337;SDS011;72379;50.880;4.350;2024-01-25T03:32:09;34.20;;;5.47;;
21337;SDS011;72379;50.880;4.350;2024-01-25T03:34:46;49.30;;;5.93;;
21337;SDS011;72379;50.880;4.350;2024-01-25T03:37:12;53.13;;;6.60;;
21337;SDS011;72379;50.880;4.350;2024-01-25T03:39:38;46.87;;;6.20;;
21337;SDS011;72379;50.880;4.350;2024-01-25T03:42:04;44.87;;;6.73;;
21337;SDS011;72379;50.880;4.350;2024-01-25T03:44:30;40.93;;;6.73;;
21337;SDS011;72379;50.880;4.350;2024-01-25T03:46:57;43.23;;;6.50;;
21337;SDS011;72379;50.880;4.350;2024-01-25T03:49:23;43.33;;;6.97;;
21337;SDS011;72379;50.880;4.350;2024-01-25T03:51:49;61.83;;;7.17;;
21337;SDS011;72379;50.880;4.350;2024-01-25T03:54:15;45.20;;;7.27;;
21337;SDS011;72379;50.880;4.350;2024-01-25T03:56:41;55.20;;;6.60;;
21337;SDS011;72379;50.880;4.350;2024-01-25T03:59:07;42.70;;;6.73;;
21337;SDS011;72379;50.880;4.350;2024-01-25T04:01:40;44.63;;;6.53;;
21337;SDS011;72379;50.880;4.350;2024-01-25T04:04:07;37.77;;;5.57;;
21337;SDS011;72379;50.880;4.350;2024-01-25T04:06:35;44.40;;;7.37;;
21337;SDS011;72379;50.880;4.350;2024-01-25T04:09:02;39.40;;;6.20;;
21337;SDS011;72379;50.880;4.350;2024-01-25T04:11:29;49.03;;;8.13;;
21337;SDS011;72379;50.880;4.350;2024-01-25T04:13:55;48.27;;;6.13;;
21337;SDS011;72379;50.880;4.350;2024-01-25T04:16:21;42.63;;;6.77;;
21337;SDS011;72379;50.880;4.350;2024-01-25T04:18:46;43.17;;;5.87;;
21337;SDS011;72379;50.880;4.350;2024-01-25T04:21:12;36.47;;;5.67;;
21337;SDS011;72379;50.880;4.350;2024-01-25T04:23:38;53.00;;;8.17;;
21337;SDS011;72379;50.880;4.350;2024-01-25T04:26:04;42.53;;;6.97;;
21337;SDS011;72379;50.880;4.350;2024-01-25T04:28:30;43.37;;;6.80;;
21337;SDS011;72379;50.880;4.350;2024-01-25T04:30:56;55.33;;;6.93;;
21337;SDS011;72379;50.880;4.350;2024-01-25T04:33:22;44.00;;;6.33;;
21337;SDS011;72379;50.880;4.350;2024-01-25T04:35:49;44.13;;;7.43;;
21337;SDS011;72379;50.880;4.350;2024-01-25T04:38:14;46.67;;;7.77;;
21337;SDS011;72379;50.880;4.350;2024-01-25T04:40:40;58.67;;;6.70;;
21337;SDS011;72379;50.880;4.350;2024-01-25T04:43:06;45.13;;;7.23;;
21337;SDS011;72379;50.880;4.350;2024-01-25T04:45:32;41.93;;;6.80;;
21337;SDS011;72379;50.880;4.350;2024-01-25T04:47:59;48.63;;;7.47;;
21337;SDS011;72379;50.880;4.350;2024-01-25T04:50:25;56.27;;;8.20;;
21337;SDS011;72379;50.880;4.350;2024-01-25T04:52:51;38.47;;;6.30;;
21337;SDS011;72379;50.880;4.350;2024-01-25T04:55:16;59.93;;;7.70;;
21337;SDS011;72379;50.880;4.350;2024-01-25T04:57:42;45.00;;;7.63;;
21337;SDS011;72379;50.880;4.350;2024-01-25T05:00:09;49.13;;;7.07;;
21337;SDS011;72379;50.880;4.350;2024-01-25T05:02:35;43.70;;;8.37;;
21337;SDS011;72379;50.880;4.350;2024-01-25T05:05:01;40.20;;;7.20;;
21337;SDS011;72379;50.880;4.350;2024-01-25T05:07:26;45.40;;;7.93;;
21337;SDS011;72379;50.880;4.350;2024-01-25T05:09:52;48.90;;;7.17;;
21337;SDS011;72379;50.880;4.350;2024-01-25T05:12:19;55.10;;;8.13;;
21337;SDS011;72379;50.880;4.350;2024-01-25T05:14:44;44.50;;;6.83;;
21337;SDS011;72379;50.880;4.350;2024-01-25T05:17:10;47.43;;;7.63;;
21337;SDS011;72379;50.880;4.350;2024-01-25T05:19:36;47.07;;;7.13;;
21337;SDS011;72379;50.880;4.350;2024-01-25T05:22:02;50.03;;;7.67;;
21337;SDS011;72379;50.880;4.350;2024-01-25T05:24:32;48.17;;;7.33;;
21337;SDS011;72379;50.880;4.350;2024-01-25T05:26:58;47.03;;;7.33;;
21337;SDS011;72379;50.880;4.350;2024-01-25T05:29:24;54.50;;;7.83;;
21337;SDS011;72379;50.880;4.350;2024-01-25T05:31:50;35.03;;;5.97;;
21337;SDS011;72379;50.880;4.350;2024-01-25T05:34:16;52.30;;;8.00;;
21337;SDS011;72379;50.880;4.350;2024-01-25T05:36:42;53.90;;;7.47;;
21337;SDS011;72379;50.880;4.350;2024-01-25T05:39:07;46.70;;;7.80;;
21337;SDS011;72379;50.880;4.350;2024-01-25T05:41:34;47.03;;;7.70;;
21337;SDS011;72379;50.880;4.350;2024-01-25T05:43:59;54.33;;;7.90;;
21337;SDS011;72379;50.880;4.350;2024-01-25T05:46:25;42.40;;;7.40;;
21337;SDS011;72379;50.880;4.350;2024-01-25T05:48:51;45.23;;;7.23;;
21337;SDS011;72379;50.880;4.350;2024-01-25T05:51:17;54.83;;;8.43;;
21337;SDS011;72379;50.880;4.350;2024-01-25T05:53:43;59.53;;;7.83;;
21337;SDS011;72379;50.880;4.350;2024-01-25T05:56:09;47.70;;;9.13;;
21337;SDS011;72379;50.880;4.350;2024-01-25T05:58:35;51.07;;;8.40;;
21337;SDS011;72379;50.880;4.350;2024-01-25T06:01:02;54.50;;;8.13;;
21337;SDS011;72379;50.880;4.350;2024-01-25T06:03:28;55.20;;;7.57;;
21337;SDS011;72379;50.880;4.350;2024-01-25T06:05:54;51.43;;;7.53;;
21337;SDS011;72379;50.880;4.350;2024-01-25T06:08:20;51.27;;;7.43;;
21337;SDS011;72379;50.880;4.350;2024-01-25T06:10:46;46.87;;;6.97;;
21337;SDS011;72379;50.880;4.350;2024-01-25T06:13:12;47.17;;;7.33;;
21337;SDS011;72379;50.880;4.350;2024-01-25T06:15:39;45.67;;;8.23;;
21337;SDS011;72379;50.880;4.350;2024-01-25T06:18:05;53.20;;;7.20;;
21337;SDS011;72379;50.880;4.350;2024-01-25T06:20:32;53.87;;;8.70;;
21337;SDS011;72379;50.880;4.350;2024-01-25T06:22:58;38.00;;;6.93;;
21337;SDS011;72379;50.880;4.350;2024-01-25T06:25:24;55.03;;;9.10;;
21337;SDS011;72379;50.880;4.350;2024-01-25T06:27:55;68.50;;;8.83;;
21337;SDS011;72379;50.880;4.350;2024-01-25T06:30:22;60.13;;;8.27;;
21337;SDS011;72379;50.880;4.350;2024-01-25T06:32:48;62.07;;;10.10;;
21337;SDS011;72379;50.880;4.350;2024-01-25T06:35:14;55.43;;;9.23;;
21337;SDS011;72379;50.880;4.350;2024-01-25T06:37:40;66.93;;;10.70;;
21337;SDS011;72379;50.880;4.350;2024-01-25T06:40:07;62.40;;;9.87;;
21337;SDS011;72379;50.880;4.350;2024-01-25T06:42:33;64.50;;;10.37;;
21337;SDS011;72379;50.880;4.350;2024-01-25T06:44:59;57.07;;;9.43;;
21337;SDS011;72379;50.880;4.350;2024-01-25T06:47:26;72.77;;;10.83;;
21337;SDS011;72379;50.880;4.350;2024-01-25T06:49:52;56.00;;;10.90;;
21337;SDS011;72379;50.880;4.350;2024-01-25T06:52:18;56.17;;;11.00;;
21337;SDS011;72379;50.880;4.350;2024-01-25T06:54:44;44.33;;;9.33;;
21337;SDS011;72379;50.880;4.350;2024-01-25T06:57:17;51.87;;;10.93;;
21337;SDS011;72379;50.880;4.350;2024-01-25T06:59:43;56.60;;;10.37;;
21337;SDS011;72379;50.880;4.350;2024-01-25T07:02:09;56.17;;;10.73;;
21337;SDS011;72379;50.880;4.350;2024-01-25T07:04:35;55.63;;;12.60;;
21337;SDS011;72379;50.880;4.350;2024-01-25T07:07:03;54.10;;;11.37;;
21337;SDS011;72379;50.880;4.350;2024-01-25T07:09:29;55.67;;;11.63;;
21337;SDS011;72379;50.880;4.350;2024-01-25T07:11:56;68.93;;;12.00;;
21337;SDS011;72379;50.880;4.350;2024-01-25T07:14:22;61.20;;;13.13;;
21337;SDS011;72379;50.880;4.350;2024-01-25T07:16:48;73.57;;;13.43;;
21337;SDS011;72379;50.880;4.350;2024-01-25T07:19:14;53.27;;;10.30;;
21337;SDS011;72379;50.880;4.350;2024-01-25T07:21:40;83.67;;;11.50;;
21337;SDS011;72379;50.880;4.350;2024-01-25T07:24:06;65.63;;;11.73;;
21337;SDS011;72379;50.880;4.350;2024-01-25T07:26:32;53.53;;;10.53;;
21337;SDS011;72379;50.880;4.350;2024-01-25T07:28:58;56.87;;;11.80;;
21337;SDS011;72379;50.880;4.350;2024-01-25T07:31:27;37.80;;;10.57;;
21337;SDS011;72379;50.880;4.350;2024-01-25T07:33:53;55.27;;;12.77;;
21337;SDS011;72379;50.880;4.350;2024-01-25T07:36:20;43.67;;;11.23;;
21337;SDS011;72379;50.880;4.350;2024-01-25T07:38:46;45.60;;;11.27;;
21337;SDS011;72379;50.880;4.350;2024-01-25T07:41:13;43.23;;;11.60;;
21337;SDS011;72379;50.880;4.350;2024-01-25T07:43:42;53.97;;;11.77;;
21337;SDS011;72379;50.880;4.350;2024-01-25T07:46:08;49.50;;;11.13;;
21337;SDS011;72379;50.880;4.350;2024-01-25T07:48:35;56.10;;;11.47;;
21337;SDS011;72379;50.880;4.350;2024-01-25T07:51:01;62.37;;;13.73;;
21337;SDS011;72379;50.880;4.350;2024-01-25T07:53:28;51.57;;;13.97;;
21337;SDS011;72379;50.880;4.350;2024-01-25T07:55:54;47.10;;;11.63;;
21337;SDS011;72379;50.880;4.350;2024-01-25T07:58:21;56.00;;;13.17;;
21337;SDS011;72379;50.880;4.350;2024-01-25T08:00:47;50.20;;;13.80;;
21337;SDS011;72379;50.880;4.350;2024-01-25T08:03:14;56.07;;;13.70;;
21337;SDS011;72379;50.880;4.350;2024-01-25T08:05:40;42.33;;;10.60;;
21337;SDS011;72379;50.880;4.350;2024-01-25T08:08:06;45.83;;;11.83;;
21337;SDS011;72379;50.880;4.350;2024-01-25T08:10:33;54.17;;;12.20;;
21337;SDS011;72379;50.880;4.350;2024-01-25T08:12:59;58.60;;;14.97;;
21337;SDS011;72379;50.880;4.350;2024-01-25T08:15:24;62.90;;;15.40;;
21337;SDS011;72379;50.880;4.350;2024-01-25T08:17:50;44.67;;;11.90;;
21337;SDS011;72379;50.880;4.350;2024-01-25T08:20:17;65.00;;;14.27;;
21337;SDS011;72379;50.880;4.350;2024-01-25T08:22:43;49.37;;;12.80;;
21337;SDS011;72379;50.880;4.350;2024-01-25T08:25:08;58.50;;;13.90;;
21337;SDS011;72379;50.880;4.350;2024-01-25T08:27:35;58.23;;;13.43;;
21337;SDS011;72379;50.880;4.350;2024-01-25T08:30:01;47.97;;;13.87;;
21337;SDS011;72379;50.880;4.350;2024-01-25T08:32:28;52.93;;;12.90;;
21337;SDS011;72379;50.880;4.350;2024-01-25T08:34:54;47.57;;;13.53;;
21337;SDS011;72379;50.880;4.350;2024-01-25T08:37:20;58.37;;;15.60;;
21337;SDS011;72379;50.880;4.350;2024-01-25T08:39:45;46.27;;;12.90;;
21337;SDS011;72379;50.880;4.350;2024-01-25T08:42:15;54.53;;;13.47;;
21337;SDS011;72379;50.880;4.350;2024-01-25T08:44:44;52.63;;;12.97;;
21337;SDS011;72379;50.880;4.350;2024-01-25T08:47:16;52.60;;;13.50;;
21337;SDS011;72379;50.880;4.350;2024-01-25T08:49:42;52.63;;;14.07;;
21337;SDS011;72379;50.880;4.350;2024-01-25T08:52:08;64.40;;;15.83;;
21337;SDS011;72379;50.880;4.350;2024-01-25T08:54:35;59.17;;;16.20;;
21337;SDS011;72379;50.880;4.350;2024-01-25T08:57:03;61.10;;;14.80;;
21337;SDS011;72379;50.880;4.350;2024-01-25T08:59:30;66.80;;;14.93;;
21337;SDS011;72379;50.880;4.350;2024-01-25T09:01:58;53.97;;;15.83;;
21337;SDS011;72379;50.880;4.350;2024-01-25T09:04:23;63.67;;;15.80;;
21337;SDS011;72379;50.880;4.350;2024-01-25T09:06:49;56.93;;;16.17;;
21337;SDS011;72379;50.880;4.350;2024-01-25T09:09:15;56.87;;;14.20;;
21337;SDS011;72379;50.880;4.350;2024-01-25T09:11:41;50.33;;;13.10;;
21337;SDS011;72379;50.880;4.350;2024-01-25T09:14:07;53.83;;;13.30;;
21337;SDS011;72379;50.880;4.350;2024-01-25T09:16:33;53.73;;;14.27;;
21337;SDS011;72379;50.880;4.350;2024-01-25T09:19:02;58.40;;;15.23;;
21337;SDS011;72379;50.880;4.350;2024-01-25T09:21:28;53.57;;;14.67;;
21337;SDS011;72379;50.880;4.350;2024-01-25T09:23:53;43.27;;;12.77;;
21337;SDS011;72379;50.880;4.350;2024-01-25T09:26:19;57.00;;;13.77;;
21337;SDS011;72379;50.880;4.350;2024-01-25T09:28:46;53.50;;;12.90;;
21337;SDS011;72379;50.880;4.350;2024-01-25T09:31:11;45.27;;;13.93;;
21337;SDS011;72379;50.880;4.350;2024-01-25T09:33:37;45.60;;;11.67;;
21337;SDS011;72379;50.880;4.350;2024-01-25T09:36:04;56.77;;;12.37;;
21337;SDS011;72379;50.880;4.350;2024-01-25T09:38:30;45.83;;;13.87;;
21337;SDS011;72379;50.880;4.350;2024-01-25T09:40:56;54.53;;;14.00;;
21337;SDS011;72379;50.880;4.350;2024-01-25T09:43:24;53.10;;;13.63;;
21337;SDS011;72379;50.880;4.350;2024-01-25T09:45:51;66.80;;;14.60;;
21337;SDS011;72379;50.880;4.350;2024-01-25T09:48:19;61.43;;;13.93;;
21337;SDS011;72379;50.880;4.350;2024-01-25T09:50:47;60.47;;;15.23;;
21337;SDS011;72379;50.880;4.350;2024-01-25T09:53:22;58.70;;;14.40;;
21337;SDS011;72379;50.880;4.350;2024-01-25T09:55:54;57.50;;;14.97;;
21337;SDS011;72379;50.880;4.350;2024-01-25T09:58:36;50.17;;;14.63;;
21337;SDS011;72379;50.880;4.350;2024-01-25T10:01:13;64.73;;;17.13;;
21337;SDS011;72379;50.880;4.350;2024-01-25T10:03:45;64.37;;;17.93;;
21337;SDS011;72379;50.880;4.350;2024-01-25T10:06:11;53.97;;;15.77;;
21337;SDS011;72379;50.880;4.350;2024-01-25T10:08:38;69.70;;;17.37;;
21337;SDS011;72379;50.880;4.350;2024-01-25T10:11:05;76.80;;;17.97;;
21337;SDS011;72379;50.880;4.350;2024-01-25T10:13:31;67.50;;;17.67;;
21337;SDS011;72379;50.880;4.350;2024-01-25T10:15:57;69.43;;;18.23;;
21337;SDS011;72379;50.880;4.350;2024-01-25T10:18:27;72.57;;;18.90;;
21337;SDS011;72379;50.880;4.350;2024-01-25T10:20:53;74.83;;;19.57;;
21337;SDS011;72379;50.880;4.350;2024-01-25T10:23:20;72.17;;;20.10;;
21337;SDS011;72379;50.880;4.350;2024-01-25T10:25:47;82.97;;;18.83;;
21337;SDS011;72379;50.880;4.350;2024-01-25T10:28:13;74.10;;;20.00;;
21337;SDS011;72379;50.880;4.350;2024-01-25T10:30:39;78.07;;;19.13;;
21337;SDS011;72379;50.880;4.350;2024-01-25T10:33:05;72.57;;;19.60;;
21337;SDS011;72379;50.880;4.350;2024-01-25T10:35:34;72.03;;;18.37;;
21337;SDS011;72379;50.880;4.350;2024-01-25T10:38:02;68.40;;;17.33;;
21337;SDS011;72379;50.880;4.350;2024-01-25T10:40:29;65.57;;;17.83;;
21337;SDS011;72379;50.880;4.350;2024-01-25T10:42:56;74.00;;;18.10;;
21337;SDS011;72379;50.880;4.350;2024-01-25T10:45:21;59.23;;;16.10;;
21337;SDS011;72379;50.880;4.350;2024-01-25T10:47:49;66.73;;;17.40;;
21337;SDS011;72379;50.880;4.350;2024-01-25T10:50:14;69.33;;;17.40;;
21337;SDS011;72379;50.880;4.350;2024-01-25T10:52:41;78.73;;;19.70;;
21337;SDS011;72379;50.880;4.350;2024-01-25T10:55:13;67.17;;;17.27;;
21337;SDS011;72379;50.880;4.350;2024-01-25T10:57:44;64.07;;;17.70;;
21337;SDS011;72379;50.880;4.350;2024-01-25T11:00:12;65.83;;;17.27;;
21337;SDS011;72379;50.880;4.350;2024-01-25T11:02:42;70.03;;;18.23;;
21337;SDS011;72379;50.880;4.350;2024-01-25T11:05:13;64.27;;;16.93;;
21337;SDS011;72379;50.880;4.350;2024-01-25T11:07:41;61.90;;;17.27;;
21337;SDS011;72379;50.880;4.350;2024-01-25T11:10:16;65.47;;;16.07;;
21337;SDS011;72379;50.880;4.350;2024-01-25T11:12:51;64.50;;;15.77;;
21337;SDS011;72379;50.880;4.350;2024-01-25T11:15:22;50.43;;;13.87;;
21337;SDS011;72379;50.880;4.350;2024-01-25T11:17:55;62.87;;;14.93;;
21337;SDS011;72379;50.880;4.350;2024-01-25T11:20:25;53.07;;;15.17;;
21337;SDS011;72379;50.880;4.350;2024-01-25T11:22:59;49.10;;;14.80;;
21337;SDS011;72379;50.880;4.350;2024-01-25T11:25:33;53.73;;;14.93;;
21337;SDS011;72379;50.880;4.350;2024-01-25T11:28:01;43.30;;;14.50;;
21337;SDS011;72379;50.880;4.350;2024-01-25T11:30:29;65.13;;;14.53;;
21337;SDS011;72379;50.880;4.350;2024-01-25T11:32:57;59.23;;;13.93;;
21337;SDS011;72379;50.880;4.350;2024-01-25T11:35:23;47.90;;;14.50;;
21337;SDS011;72379;50.880;4.350;2024-01-25T11:37:49;47.50;;;13.53;;
21337;SDS011;72379;50.880;4.350;2024-01-25T11:40:17;42.63;;;12.20;;
21337;SDS011;72379;50.880;4.350;2024-01-25T11:42:43;52.70;;;14.47;;
21337;SDS011;72379;50.880;4.350;2024-01-25T11:45:13;49.50;;;14.23;;
21337;SDS011;72379;50.880;4.350;2024-01-25T11:47:41;39.80;;;12.17;;
21337;SDS011;72379;50.880;4.350;2024-01-25T11:50:08;50.57;;;14.30;;
21337;SDS011;72379;50.880;4.350;2024-01-25T11:52:36;43.67;;;12.47;;
21337;SDS011;72379;50.880;4.350;2024-01-25T11:55:02;37.70;;;11.00;;
21337;SDS011;72379;50.880;4.350;2024-01-25T11:57:37;44.20;;;12.43;;
21337;SDS011;72379;50.880;4.350;2024-01-25T12:00:06;44.40;;;13.73;;
21337;SDS011;72379;50.880;4.350;2024-01-25T12:02:37;40.70;;;12.90;;
21337;SDS011;72379;50.880;4.350;2024-01-25T12:05:03;43.30;;;13.17;;
21337;SDS011;72379;50.880;4.350;2024-01-25T12:07:30;42.17;;;12.70;;
21337;SDS011;72379;50.880;4.350;2024-01-25T12:09:58;47.50;;;12.37;;
21337;SDS011;72379;50.880;4.350;2024-01-25T12:12:35;46.30;;;12.13;;
21337;SDS011;72379;50.880;4.350;2024-01-25T12:15:05;43.03;;;11.53;;
21337;SDS011;72379;50.880;4.350;2024-01-25T12:17:32;44.33;;;11.93;;
21337;SDS011;72379;50.880;4.350;2024-01-25T12:20:05;40.70;;;11.97;;
21337;SDS011;72379;50.880;4.350;2024-01-25T12:22:35;31.03;;;10.63;;
21337;SDS011;72379;50.880;4.350;2024-01-25T12:25:02;30.30;;;9.47;;
21337;SDS011;72379;50.880;4.350;2024-01-25T12:27:32;32.10;;;10.10;;
21337;SDS011;72379;50.880;4.350;2024-01-25T12:29:58;33.77;;;11.77;;
21337;SDS011;72379;50.880;4.350;2024-01-25T12:32:24;39.97;;;12.90;;
21337;SDS011;72379;50.880;4.350;2024-01-25T12:34:54;47.57;;;12.97;;
21337;SDS011;72379;50.880;4.350;2024-01-25T12:37:20;48.07;;;12.53;;
21337;SDS011;72379;50.880;4.350;2024-01-25T12:39:46;44.30;;;12.20;;
21337;SDS011;72379;50.880;4.350;2024-01-25T12:42:12;39.70;;;12.60;;
21337;SDS011;72379;50.880;4.350;2024-01-25T12:44:38;41.57;;;14.17;;
21337;SDS011;72379;50.880;4.350;2024-01-25T12:47:05;41.33;;;13.30;;
21337;SDS011;72379;50.880;4.350;2024-01-25T12:49:32;37.40;;;13.93;;
21337;SDS011;72379;50.880;4.350;2024-01-25T12:51:59;41.07;;;14.77;;
21337;SDS011;72379;50.880;4.350;2024-01-25T12:54:25;51.17;;;15.67;;
21337;SDS011;72379;50.880;4.350;2024-01-25T12:56:52;35.37;;;14.40;;
21337;SDS011;72379;50.880;4.350;2024-01-25T12:59:18;33.67;;;14.80;;
21337;SDS011;72379;50.880;4.350;2024-01-25T13:01:44;42.73;;;14.90;;
21337;SDS011;72379;50.880;4.350;2024-01-25T13:04:10;31.17;;;14.03;;
21337;SDS011;72379;50.880;4.350;2024-01-25T13:06:36;38.17;;;14.57;;
21337;SDS011;72379;50.880;4.350;2024-01-25T13:09:02;34.70;;;12.07;;
21337;SDS011;72379;50.880;4.350;2024-01-25T13:11:29;30.00;;;12.40;;
21337;SDS011;72379;50.880;4.350;2024-01-25T13:13:55;27.67;;;11.97;;
21337;SDS011;72379;50.880;4.350;2024-01-25T13:16:21;24.10;;;11.27;;
21337;SDS011;72379;50.880;4.350;2024-01-25T13:18:47;35.73;;;12.50;;
21337;SDS011;72379;50.880;4.350;2024-01-25T13:21:13;35.63;;;12.40;;
21337;SDS011;72379;50.880;4.350;2024-01-25T13:23:39;29.67;;;12.40;;
21337;SDS011;72379;50.880;4.350;2024-01-25T13:26:05;23.03;;;10.50;;
21337;SDS011;72379;50.880;4.350;2024-01-25T13:28:30;23.17;;;10.47;;
21337;SDS011;72379;50.880;4.350;2024-01-25T13:30:57;21.37;;;10.90;;
21337;SDS011;72379;50.880;4.350;2024-01-25T13:33:25;27.60;;;10.83;;
21337;SDS011;72379;50.880;4.350;2024-01-25T13:35:50;21.47;;;10.27;;
21337;SDS011;72379;50.880;4.350;2024-01-25T13:38:17;23.80;;;10.67;;
21337;SDS011;72379;50.880;4.350;2024-01-25T13:40:42;22.57;;;11.20;;
21337;SDS011;72379;50.880;4.350;2024-01-25T13:43:08;27.57;;;11.63;;
21337;SDS011;72379;50.880;4.350;2024-01-25T13:45:36;21.37;;;10.70;;
21337;SDS011;72379;50.880;4.350;2024-01-25T13:48:02;19.40;;;11.63;;
21337;SDS011;72379;50.880;4.350;2024-01-25T13:50:28;23.17;;;11.60;;
21337;SDS011;72379;50.880;4.350;2024-01-25T13:52:54;24.13;;;11.70;;
21337;SDS011;72379;50.880;4.350;2024-01-25T13:55:20;23.50;;;13.27;;
21337;SDS011;72379;50.880;4.350;2024-01-25T13:57:46;25.17;;;12.27;;
21337;SDS011;72379;50.880;4.350;2024-01-25T14:00:12;23.83;;;12.43;;
21337;SDS011;72379;50.880;4.350;2024-01-25T14:02:39;26.57;;;13.17;;
21337;SDS011;72379;50.880;4.350;2024-01-25T14:05:10;28.07;;;14.47;;
21337;SDS011;72379;50.880;4.350;2024-01-25T14:07:36;27.67;;;14.87;;
21337;SDS011;72379;50.880;4.350;2024-01-25T14:10:02;31.13;;;14.93;;
21337;SDS011;72379;50.880;4.350;2024-01-25T14:12:28;29.00;;;14.40;;
21337;SDS011;72379;50.880;4.350;2024-01-25T14:14:54;30.13;;;15.57;;
21337;SDS011;72379;50.880;4.350;2024-01-25T14:17:20;32.53;;;15.33;;
21337;SDS011;72379;50.880;4.350;2024-01-25T14:19:48;29.77;;;13.87;;
21337;SDS011;72379;50.880;4.350;2024-01-25T14:22:14;33.10;;;15.53;;
21337;SDS011;72379;50.880;4.350;2024-01-25T14:24:40;31.83;;;15.10;;